• Join FlightAware (Why Join?)
  • Login
  • US Flag 
07:11PM EDT


 

Airport Tracker/Info


-or-


 

Live Flight TrackerFlight Track Log ✈ XOJ552 ✈ 26-Jun-2013 ✈ KOAK - KVNY

Flight Track Log - Related Links

Times and Time Zones

All times are in EDT time to prevent confusion due to time zone crossing. See the XOJ552 flight status page for this flight to view local times or setup timezone preferences in your user account.

Time Position Orientation Groundspeed Altitude Reporting Facility
EDT Latitude Longitude Course Direction KTS MPH feet Rate Location/Type
06:50PM 37.7333 -122.3833 256° West 264 304 8,700  Level Northern Cal TRACON
06:51PM 37.6667 -122.4167 202° Southwest 307 353 10,000 780 Climbing Northern Cal TRACON
06:52PM 37.5908 -122.4361 191° South 311 358 10,300 1,620 Climbing Oakland Center
06:53PM 37.4981 -122.4553 189° South 336 387 13,300 3,540 Climbing Oakland Center
06:54PM 37.2467 -122.2701 107° East  Level FlightAware Approximate
06:54PM 37.3994 -122.3653 144° Southeast 370 426 17,500  Level Oakland Center
06:55PM 37.3225 -122.2781 138° Southeast 373 429 20,400 2,640 Climbing Oakland Center
06:56PM 37.2406 -122.1853 138° Southeast 393 452 23,000 2,460 Climbing Oakland Center
06:57PM 37.1536 -122.0892 139° Southeast 412 474 25,500 2,340 Climbing Oakland Center
06:58PM 37.0653 -121.9903 138° Southeast 422 486 27,900 2,340 Climbing Oakland Center
06:59PM 36.9756 -121.8889 138° Southeast 432 497 30,300 2,100 Climbing Oakland Center
07:00PM 36.8864 -121.7894 138° Southeast 432 497 32,300 1,260 Climbing Oakland Center
07:01PM 36.7933 -121.6908 140° Southeast 436 502 33,000 300 Climbing Oakland Center
07:02PM 36.6778 -121.5656 139° Southeast 449 517 33,000  Level Oakland Center
07:03PM 36.5836 -121.4594 138° Southeast 455 524 33,000 -60 Level Oakland Center
07:04PM 36.4878 -121.3553 139° Southeast 457 526 32,900  Descending Oakland Center
07:05PM 36.3922 -121.2494 138° Southeast 458 527 33,000  Climbing Oakland Center
07:06PM 36.2967 -121.1461 139° Southeast 458 527 33,000  Level Oakland Center
07:07PM 36.2003 -121.0431 139° Southeast 458 527 33,000  Level Oakland Center
07:08PM 36.1039 -120.9392 139° Southeast 459 528 33,000  Level Oakland Center
07:09PM 36.0078 -120.8344 139° Southeast 459 528 33,000  Level Oakland Center
07:10PM 35.8933 -120.7111 139° Southeast 456 525 33,000  Level Oakland Center
07:11PM 35.7969 -120.6078 139° Southeast 457 526 33,000  Level Oakland Center
07:12PM 35.7006 -120.5061 139° Southeast 456 525 33,000  Level Oakland Center
07:13PM 35.6217 -120.4231 139° Southeast 459 528 33,000  Level Los Angeles Center
07:14PM 35.5044 -120.3008 140° Southeast 459 528 33,000  Level Los Angeles Center
07:15PM 35.4094 -120.1958 138° Southeast 463 533 33,000  Level Los Angeles Center
07:16PM 35.3069 -120.0869 139° Southeast 463 533 33,000 -660 Level Los Angeles Center
07:17PM 35.2108 -119.9881 140° Southeast 453 521 31,700 -1,860 Descending Los Angeles Center
07:18PM 35.1133 -119.8864 140° Southeast 457 526 29,200 -2,400 Descending Los Angeles Center
07:20PM 35.0256 -119.7728 133° Southeast 462 532 26,800 -2,400 Descending Los Angeles Center
07:21PM 34.9411 -119.6578 132° Southeast 457 526 24,300 -2,340 Descending Los Angeles Center
07:22PM 34.8594 -119.5486 132° Southeast 438 504 22,000 -2,400 Descending Los Angeles Center
07:23PM 34.7678 -119.4250 132° Southeast 413 475 19,400 -2,280 Descending Los Angeles Center
07:24PM 34.6947 -119.3278 132° Southeast 394 453 17,300 -2,040 Descending Los Angeles Center
07:25PM 34.6242 -119.2339 132° Southeast 379 436 15,300 -1,920 Descending Los Angeles Center
07:26PM 34.5550 -119.1456 134° Southeast 356 410 13,400 -1,860 Descending Los Angeles Center
07:27PM 34.4936 -119.0642 132° Southeast 327 376 11,500 -1,200 Descending Los Angeles Center
07:28PM 34.4369 -118.9889 132° Southeast 301 346 11,000 -720 Descending Los Angeles Center
07:29PM 34.3722 -118.9014 132° Southeast 291 335 10,100 -1,200 Descending Los Angeles Center
07:30PM 34.3814 -118.8094 83° East 284 327 8,600 -1,500 Descending Los Angeles Center
07:31PM 34.4008 -118.7167 76° East 297 342 7,000 -1,320 Descending Los Angeles Center
07:32PM 34.3800 -118.6347 107° East 267 307 5,900 -1,020 Descending Los Angeles Center
07:33PM 34.3647 -118.5592 104° East 237 273 5,000 -900 Descending Los Angeles Center
07:35PM 34.3167 -118.5000 135° Southeast 141 162 3,700 -840 Descending Southern California TRACON
07:35PM 34.3056 -118.4994 178° South 160 184 3,300 -1,140 Descending Los Angeles Center
07:36PM 34.2628 -118.4964 177° South 137 158 2,000 -1,020 Descending Los Angeles Center
07:37PM 34.2256 -118.4933 176° South 131 151 1,300 -720 Descending Los Angeles Center
07:39PM 34.2098 -118.4900 180° South  Level Estimated
07:46PM 34.2098 -118.4900 180° South  Level Estimated
07:47PM 34.2098 -118.4900 180° South  Level Estimated